Time;durP1;ratioP1;P1;durP2;ratioP2;P2;SDS_P1;SDS_P2;PMS_P1;PMS_P2;Temp;Humidity;BMP_temperature;BMP_pressure;BME280_temperature;BME280_humidity;BME280_pressure;Samples;Min_cycle;Max_cycle;Signal;HPM_P1;HPM_P2
2024/01/08 00:01:32;;;;;;;11.57;4.00;;;;;;;-145.18;100.00;46750.25;4991487;28;19924;-72
2024/01/08 00:03:58;;;;;;;5.93;3.63;;;;;;;-145.18;100.00;46750.25;4992840;28;20065;-73
2024/01/08 00:06:23;;;;;;;5.93;3.27;;;;;;;-145.18;100.00;46752.19;4994198;28;20061;-72
2024/01/08 00:08:49;;;;;;;6.77;4.13;;;;;;;-145.18;100.00;46750.25;4995078;28;20049;-73
2024/01/08 00:11:14;;;;;;;6.67;3.97;;;;;;;-145.18;100.00;46746.34;4995616;28;20037;-73
2024/01/08 00:13:40;;;;;;;6.50;3.60;;;;;;;-145.18;100.00;46748.28;4995301;28;20459;-72
2024/01/08 00:16:05;;;;;;;9.37;4.07;;;;;;;-145.18;100.00;46748.28;4995781;28;20026;-73
2024/01/08 00:18:31;;;;;;;6.37;3.83;;;;;;;-145.18;100.00;46752.19;4994937;28;20478;-72
2024/01/08 00:20:59;;;;;;;7.10;3.60;;;;;;;-145.18;100.00;46750.25;4993064;28;20030;-73
2024/01/08 00:23:24;;;;;;;4.97;3.25;;;;;;;-145.18;100.00;46752.19;4994429;28;20028;-73
2024/01/08 00:25:50;;;;;;;8.63;4.70;;;;;;;-145.18;100.00;46756.09;4994966;28;20376;-72
2024/01/08 00:28:15;;;;;;;9.67;5.50;;;;;;;-145.18;100.00;46752.19;4994956;28;20050;-73
2024/01/08 00:30:40;;;;;;;13.17;5.77;;;;;;;-145.18;100.00;46746.34;4995589;28;20064;-73
2024/01/08 00:33:06;;;;;;;6.77;4.43;;;;;;;-145.18;100.00;46746.34;4995177;28;20405;-73
2024/01/08 00:35:31;;;;;;;8.03;5.10;;;;;;;-145.18;100.00;46750.25;4993786;28;20057;-72
2024/01/08 00:37:57;;;;;;;9.67;5.03;;;;;;;-145.18;100.00;46746.34;4995195;28;20030;-73
2024/01/08 00:40:22;;;;;;;9.47;4.50;;;;;;;-145.18;100.00;46744.38;4994662;28;20069;-72
2024/01/08 00:42:48;;;;;;;9.07;4.60;;;;;;;-145.18;100.00;46744.38;4994899;28;20060;-72
2024/01/08 00:45:13;;;;;;;8.30;4.30;;;;;;;-145.18;100.00;46738.53;4994232;28;20073;-73
2024/01/08 00:47:40;;;;;;;9.27;5.20;;;;;;;-145.18;100.00;46744.38;4993484;28;20109;-73
2024/01/08 00:50:06;;;;;;;6.78;3.88;;;;;;;-145.18;100.00;46738.53;4994920;28;20030;-73
2024/01/08 00:52:32;;;;;;;7.75;4.50;;;;;;;-145.18;100.00;46736.56;4995617;28;20040;-73
2024/01/08 00:55:04;;;;;;;6.90;3.90;;;;;;;-145.18;100.00;46740.47;4994402;28;20124;-72
2024/01/08 00:57:29;;;;;;;8.43;3.92;;;;;;;-145.18;100.00;46740.47;4993879;28;20129;-73
2024/01/08 00:59:55;;;;;;;7.30;4.37;;;;;;;-145.18;100.00;46740.47;4993387;28;20507;-72
2024/01/08 01:02:20;;;;;;;7.57;5.23;;;;;;;-145.18;100.00;46736.56;4994215;28;20402;-72
2024/01/08 01:04:45;;;;;;;6.70;4.07;;;;;;;-145.18;100.00;46736.56;4994339;28;20026;-72
2024/01/08 01:07:11;;;;;;;9.17;4.67;;;;;;;-145.18;100.00;46740.47;4977105;28;20137;-72
2024/01/08 01:09:36;;;;;;;7.90;4.40;;;;;;;-145.18;100.00;46738.53;4994405;28;20072;-72
2024/01/08 01:12:02;;;;;;;9.30;5.07;;;;;;;-145.18;100.00;46736.56;4994089;28;20034;-72
2024/01/08 01:14:27;;;;;;;7.40;4.60;;;;;;;-145.18;100.00;46736.56;4992858;28;20026;-73
2024/01/08 01:16:52;;;;;;;8.40;4.80;;;;;;;-145.18;100.00;46732.66;4993474;28;20184;-72
2024/01/08 01:19:18;;;;;;;8.00;4.00;;;;;;;-145.18;100.00;46736.56;4994327;28;20027;-72
2024/01/08 01:21:43;;;;;;;7.00;3.97;;;;;;;-145.18;100.00;46738.53;4992526;28;20128;-73
2024/01/08 01:24:08;;;;;;;7.87;3.90;;;;;;;-145.18;100.00;46730.72;4992784;28;20026;-72
2024/01/08 01:26:34;;;;;;;8.23;4.40;;;;;;;-145.18;100.00;46726.81;4976691;28;20506;-72
2024/01/08 01:28:59;;;;;;;7.43;4.60;;;;;;;-145.18;100.00;46732.66;4993508;28;20096;-72
2024/01/08 01:31:24;;;;;;;7.07;4.00;;;;;;;-145.18;100.00;46730.72;4993918;28;20026;-72
2024/01/08 01:33:50;;;;;;;7.63;4.10;;;;;;;-145.18;100.00;46730.72;4994344;28;20153;-73
2024/01/08 01:36:15;;;;;;;7.43;4.37;;;;;;;-145.18;100.00;46722.91;4994002;28;20026;-73
2024/01/08 01:38:41;;;;;;;7.03;3.97;;;;;;;-145.18;100.00;46726.81;4993967;28;20042;-72
2024/01/08 01:41:06;;;;;;;9.47;4.53;;;;;;;-145.18;100.00;46724.84;4992834;28;20034;-72
2024/01/08 01:43:32;;;;;;;8.53;4.00;;;;;;;-145.18;100.00;46726.81;4992429;28;20493;-73
2024/01/08 01:46:04;;;;;;;7.10;4.53;;;;;;;-145.18;100.00;46722.91;4992785;28;20105;-72
2024/01/08 01:48:29;;;;;;;7.90;4.47;;;;;;;-145.18;100.00;46726.81;4993446;28;20566;-72
2024/01/08 01:50:55;;;;;;;7.27;4.60;;;;;;;-145.18;100.00;46724.84;4993444;28;20046;-73
2024/01/08 01:53:21;;;;;;;9.27;4.47;;;;;;;-145.18;100.00;46720.94;4976204;28;20026;-72
2024/01/08 01:55:47;;;;;;;6.40;3.90;;;;;;;-145.18;100.00;46719.00;4976267;28;20299;-72
2024/01/08 01:58:14;;;;;;;6.63;3.30;;;;;;;-145.18;100.00;46720.94;4993161;28;20376;-73
2024/01/08 02:00:40;;;;;;;8.18;4.90;;;;;;;-145.18;100.00;46722.91;4993538;28;20030;-72
2024/01/08 02:03:06;;;;;;;5.40;3.50;;;;;;;-145.18;100.00;46719.00;4976456;28;20110;-73
2024/01/08 02:05:33;;;;;;;6.83;3.87;;;;;;;-145.18;100.00;46719.00;4992280;28;20105;-73
2024/01/08 02:07:58;;;;;;;7.40;4.10;;;;;;;-145.18;100.00;46722.91;4992141;28;20046;-73
2024/01/08 02:10:25;;;;;;;6.77;3.77;;;;;;;-145.18;100.00;46720.94;4993531;28;20034;-73
2024/01/08 02:12:50;;;;;;;8.05;4.50;;;;;;;-145.18;100.00;46719.00;4993144;28;20061;-73
2024/01/08 02:15:16;;;;;;;7.40;4.27;;;;;;;-145.18;100.00;46720.94;4993628;28;20063;-73
2024/01/08 02:17:41;;;;;;;7.53;3.90;;;;;;;-145.18;100.00;46722.91;4992949;28;20482;-73
2024/01/08 02:20:07;;;;;;;5.93;3.80;;;;;;;-145.18;100.00;46722.91;4975706;28;20026;-73
2024/01/08 02:22:39;;;;;;;8.95;3.90;;;;;;;-145.18;100.00;46724.84;4992773;28;20113;-72
2024/01/08 02:25:05;;;;;;;7.85;3.75;;;;;;;-145.18;100.00;46726.81;4993123;28;20034;-73
2024/01/08 02:27:30;;;;;;;7.93;4.07;;;;;;;-145.18;100.00;46726.81;4992024;28;20513;-73
2024/01/08 02:29:56;;;;;;;10.27;4.00;;;;;;;-145.18;100.00;46728.75;4991199;28;20452;-73
2024/01/08 02:32:21;;;;;;;6.67;3.67;;;;;;;-145.18;100.00;46724.84;4990871;28;20041;-73
2024/01/08 02:34:46;;;;;;;7.83;4.00;;;;;;;-145.18;100.00;46726.81;4992293;28;20040;-73
2024/01/08 02:37:12;;;;;;;6.90;3.90;;;;;;;-145.18;100.00;46724.84;4992874;28;20485;-73
2024/01/08 02:39:37;;;;;;;9.33;4.47;;;;;;;-145.18;100.00;46726.81;4993140;28;20398;-73
2024/01/08 02:42:03;;;;;;;7.97;4.60;;;;;;;-145.18;100.00;46722.91;4984454;28;20038;-73
2024/01/08 02:44:28;;;;;;;8.03;4.33;;;;;;;-145.18;100.00;46726.81;4992710;28;20034;-73
2024/01/08 02:46:54;;;;;;;8.73;4.73;;;;;;;-145.18;100.00;46730.72;4992602;28;20034;-73
2024/01/08 02:49:20;;;;;;;9.80;4.60;;;;;;;-145.18;100.00;46726.81;4991823;28;20046;-73
2024/01/08 02:51:45;;;;;;;8.03;4.30;;;;;;;-145.18;100.00;46730.72;4992656;28;20038;-73
2024/01/08 02:54:10;;;;;;;7.70;4.23;;;;;;;-145.18;100.00;46736.56;4993102;28;20117;-73
2024/01/08 02:56:36;;;;;;;7.77;4.23;;;;;;;-145.18;100.00;46732.66;4992567;28;20045;-73
2024/01/08 02:59:06;;;;;;;7.87;3.97;;;;;;;-145.18;100.00;46736.56;4992920;28;20392;-74
2024/01/08 03:01:31;;;;;;;7.70;4.72;;;;;;;-145.18;100.00;46736.56;4992006;28;20072;-73
2024/01/08 03:03:56;;;;;;;7.87;4.13;;;;;;;-145.18;100.00;46734.63;4993086;28;20069;-73
2024/01/08 03:06:22;;;;;;;7.70;4.57;;;;;;;-145.18;100.00;46732.66;4992235;28;20053;-73
2024/01/08 03:08:47;;;;;;;9.43;4.60;;;;;;;-145.18;100.00;46734.63;4992505;28;20038;-73
2024/01/08 03:11:12;;;;;;;8.03;4.07;;;;;;;-145.18;100.00;46736.56;4992260;28;20065;-73
2024/01/08 03:13:38;;;;;;;9.80;5.00;;;;;;;-145.18;100.00;46734.63;4992843;28;20073;-73
2024/01/08 03:16:04;;;;;;;8.30;4.60;;;;;;;-145.18;100.00;46738.53;4992384;28;20502;-73
2024/01/08 03:18:29;;;;;;;10.17;5.30;;;;;;;-145.18;100.00;46740.47;4992914;28;20026;-73
2024/01/08 03:20:54;;;;;;;7.97;4.53;;;;;;;-145.18;100.00;46744.38;4990414;28;20038;-73
2024/01/08 03:23:20;;;;;;;9.90;5.27;;;;;;;-145.18;100.00;46742.44;4991423;28;20036;-73
2024/01/08 03:25:45;;;;;;;7.40;3.83;;;;;;;-145.18;100.00;46738.53;4992683;28;20034;-74
2024/01/08 03:28:11;;;;;;;7.53;4.10;;;;;;;-145.18;100.00;46740.47;4992453;28;20141;-73
2024/01/08 03:30:36;;;;;;;8.93;4.30;;;;;;;-145.18;100.00;46744.38;4992605;28;20109;-74
2024/01/08 03:33:01;;;;;;;8.43;4.53;;;;;;;-145.18;100.00;46736.56;4990382;28;20549;-73
2024/01/08 03:35:27;;;;;;;10.80;5.00;;;;;;;-145.18;100.00;46744.38;4992037;28;20073;-74
2024/01/08 03:37:52;;;;;;;7.43;4.23;;;;;;;-145.18;100.00;46742.44;4975088;28;20038;-73
2024/01/08 03:40:17;;;;;;;9.70;4.87;;;;;;;-145.18;100.00;46744.38;4993082;28;20465;-73
2024/01/08 03:42:43;;;;;;;7.53;4.37;;;;;;;-145.18;100.00;46742.44;4996431;28;20035;-73
2024/01/08 03:45:09;;;;;;;8.00;4.33;;;;;;;-145.18;100.00;46744.38;4995699;28;20028;-73
2024/01/08 03:47:35;;;;;;;8.47;4.63;;;;;;;-145.18;100.00;46744.38;4995854;28;20066;-73
2024/01/08 03:50:00;;;;;;;8.67;4.60;;;;;;;-145.18;100.00;46746.34;4996216;28;20034;-73
2024/01/08 03:52:25;;;;;;;7.93;4.50;;;;;;;-145.18;100.00;46748.28;4995823;28;20268;-73
2024/01/08 03:54:51;;;;;;;9.57;4.67;;;;;;;-145.18;100.00;46752.19;4976881;28;20133;-73
2024/01/08 03:57:16;;;;;;;7.90;3.93;;;;;;;-145.18;100.00;46748.28;4995460;28;20537;-73
2024/01/08 03:59:42;;;;;;;9.83;4.60;;;;;;;-145.18;100.00;46748.28;4992909;28;20062;-73
2024/01/08 04:02:08;;;;;;;11.17;4.63;;;;;;;-145.18;100.00;46748.28;4992144;28;20121;-73
2024/01/08 04:04:33;;;;;;;10.73;4.80;;;;;;;-145.18;100.00;46754.16;4991540;28;20283;-73
2024/01/08 04:06:59;;;;;;;9.67;4.80;;;;;;;-145.18;100.00;46754.16;4996258;28;20467;-73
2024/01/08 04:09:24;;;;;;;9.90;4.60;;;;;;;-145.18;100.00;46752.19;4994382;28;20041;-72
2024/01/08 04:11:49;;;;;;;8.77;4.53;;;;;;;-145.18;100.00;46752.19;4995790;28;20058;-73
2024/01/08 04:14:15;;;;;;;9.67;4.97;;;;;;;-145.18;100.00;46748.28;4995620;28;20034;-73
2024/01/08 04:16:40;;;;;;;7.37;3.97;;;;;;;-145.18;100.00;46752.19;4995490;28;20038;-73
2024/01/08 04:19:06;;;;;;;8.57;4.50;;;;;;;-145.18;100.00;46756.09;4978111;28;20026;-72
2024/01/08 04:21:32;;;;;;;10.57;5.10;;;;;;;-145.18;100.00;46752.19;4994573;28;20034;-73
2024/01/08 04:23:57;;;;;;;6.87;3.37;;;;;;;-145.18;100.00;46754.16;4993087;28;20034;-67
2024/01/08 04:26:25;;;;;;;9.17;4.40;;;;;;;-145.18;100.00;46756.09;4995345;28;20034;-67
2024/01/08 04:28:51;;;;;;;10.60;4.70;;;;;;;-145.18;100.00;46752.19;4978111;28;20064;-68
2024/01/08 04:31:20;;;;;;;10.90;4.67;;;;;;;-145.18;100.00;46756.09;4995228;28;20138;-68
2024/01/08 04:33:46;;;;;;;7.82;4.47;;;;;;;-145.18;100.00;46756.09;4995234;28;20494;-67
2024/01/08 04:36:15;;;;;;;11.60;5.10;;;;;;;-145.18;100.00;46761.97;4995153;28;20041;-68
2024/01/08 04:38:41;;;;;;;12.13;5.05;;;;;;;-145.18;100.00;46760.00;4990477;28;20364;-67
2024/01/08 04:41:07;;;;;;;12.07;4.67;;;;;;;-145.18;100.00;46758.06;4992209;28;20394;-67
2024/01/08 04:43:32;;;;;;;10.35;4.63;;;;;;;-145.18;100.00;46758.06;4994712;28;20057;-68
2024/01/08 04:45:58;;;;;;;11.00;5.10;;;;;;;-145.18;100.00;46763.91;4994203;28;20481;-68
2024/01/08 04:48:23;;;;;;;9.33;5.37;;;;;;;-145.18;100.00;46761.97;4994734;28;20037;-68
2024/01/08 04:50:49;;;;;;;9.87;5.40;;;;;;;-145.18;100.00;46761.97;4993920;28;20027;-67
2024/01/08 04:53:14;;;;;;;11.57;5.23;;;;;;;-145.18;100.00;46765.88;4995001;28;20041;-67
2024/01/08 04:55:39;;;;;;;9.07;4.87;;;;;;;-145.18;100.00;46761.97;4994707;28;20482;-68
2024/01/08 04:58:08;;;;;;;12.50;5.13;;;;;;;-145.18;100.00;46763.91;4994553;28;20030;-68
2024/01/08 05:00:34;;;;;;;12.00;5.07;;;;;;;-145.18;100.00;46763.91;4989102;28;20023;-68
2024/01/08 05:02:59;;;;;;;9.43;4.87;;;;;;;-145.18;100.00;46763.91;4994367;28;20054;-68
2024/01/08 05:05:25;;;;;;;12.53;5.03;;;;;;;-145.18;100.00;46765.88;4994500;28;20525;-68
2024/01/08 05:07:50;;;;;;;10.13;4.70;;;;;;;-145.18;100.00;46765.88;4994708;28;20066;-68
2024/01/08 05:10:15;;;;;;;9.77;5.07;;;;;;;-145.18;100.00;46761.97;4994463;28;20026;-68
2024/01/08 05:12:41;;;;;;;9.07;4.90;;;;;;;-145.18;100.00;46765.88;4994406;28;20698;-68
2024/01/08 05:15:07;;;;;;;11.77;4.73;;;;;;;-145.18;100.00;46761.97;4994971;28;20038;-68
2024/01/08 05:17:32;;;;;;;9.33;4.97;;;;;;;-145.18;100.00;46761.97;4976858;28;20045;-68
2024/01/08 05:19:57;;;;;;;9.80;4.63;;;;;;;-145.18;100.00;46761.97;4994736;28;20113;-68
2024/01/08 05:22:23;;;;;;;12.47;5.07;;;;;;;-145.18;100.00;46761.97;4994078;28;20394;-68
2024/01/08 05:24:48;;;;;;;10.67;5.10;;;;;;;-145.18;100.00;46761.97;4993881;28;20033;-68
2024/01/08 05:27:14;;;;;;;9.90;4.47;;;;;;;-145.18;100.00;46763.91;4992787;28;20022;-68
2024/01/08 05:29:39;;;;;;;12.53;5.37;;;;;;;-145.18;100.00;46765.88;4993943;28;20514;-68
2024/01/08 05:32:05;;;;;;;9.73;4.87;;;;;;;-145.18;100.00;46761.97;4993719;28;20034;-68
2024/01/08 05:34:31;;;;;;;11.55;5.03;;;;;;;-145.18;100.00;46765.88;4994197;28;20033;-73
2024/01/08 05:36:57;;;;;;;10.77;5.57;;;;;;;-145.18;100.00;46767.84;4993760;28;20062;-73
2024/01/08 05:39:22;;;;;;;13.80;5.83;;;;;;;-145.18;100.00;46761.97;4976218;28;20057;-72
2024/01/08 05:41:48;;;;;;;11.67;5.80;;;;;;;-145.18;100.00;46767.84;4994059;28;20104;-73
2024/01/08 05:44:13;;;;;;;10.73;5.37;;;;;;;-145.18;100.00;46765.88;4992643;28;20026;-73
2024/01/08 05:46:42;;;;;;;10.27;5.33;;;;;;;-145.18;100.00;46767.84;4992263;28;20033;-73
2024/01/08 05:49:08;;;;;;;13.88;5.70;;;;;;;-145.18;100.00;46767.84;4992592;28;20030;-73
2024/01/08 05:51:33;;;;;;;13.87;5.97;;;;;;;-145.18;100.00;46767.84;4975775;28;20399;-73
2024/01/08 05:53:58;;;;;;;13.97;5.77;;;;;;;-145.18;100.00;46765.88;4992527;28;20066;-73
2024/01/08 05:56:24;;;;;;;12.23;5.27;;;;;;;-145.18;100.00;46765.88;4991255;28;20053;-73
2024/01/08 05:58:49;;;;;;;11.30;5.80;;;;;;;-145.18;100.00;46761.97;4995647;28;20066;-74
2024/01/08 06:01:15;;;;;;;10.57;5.37;;;;;;;-145.18;100.00;46767.84;4990189;28;20034;-73
2024/01/08 06:03:40;;;;;;;12.93;5.80;;;;;;;-145.18;100.00;46767.84;4991361;28;20052;-72
2024/01/08 06:06:06;;;;;;;10.00;5.30;;;;;;;-145.18;100.00;46773.69;4990495;28;20026;-73
2024/01/08 06:08:31;;;;;;;12.43;6.27;;;;;;;-145.18;100.00;46765.88;4957205;28;20030;-73
2024/01/08 06:10:57;;;;;;;11.53;5.23;;;;;;;-145.18;100.00;46769.78;4991108;28;20526;-74
2024/01/08 06:13:22;;;;;;;15.60;6.23;;;;;;;-145.18;100.00;46773.69;4990811;28;20026;-73
2024/01/08 06:15:47;;;;;;;13.30;6.70;;;;;;;-145.18;100.00;46769.78;4973399;28;20392;-73
2024/01/08 06:18:14;;;;;;;12.87;5.50;;;;;;;-145.18;100.00;46781.50;4941907;28;20121;-73
2024/01/08 06:20:39;;;;;;;12.55;6.25;;;;;;;-145.18;100.00;46777.59;4992047;28;20018;-73
2024/01/08 06:23:04;;;;;;;10.43;5.60;;;;;;;-145.18;100.00;46777.59;4992109;28;20042;-73
2024/01/08 06:25:30;;;;;;;13.73;6.37;;;;;;;-145.18;100.00;46779.56;4991207;28;20038;-73
2024/01/08 06:27:55;;;;;;;13.30;5.70;;;;;;;-145.18;100.00;46779.56;4990272;28;20026;-73
2024/01/08 06:30:21;;;;;;;16.00;6.57;;;;;;;-145.18;100.00;46777.59;4992740;28;20439;-72
2024/01/08 06:32:46;;;;;;;12.77;6.20;;;;;;;-145.18;100.00;46777.59;4992265;28;20034;-72
2024/01/08 06:35:12;;;;;;;12.40;6.57;;;;;;;-145.18;100.00;46777.59;4992946;28;20301;-73
2024/01/08 06:37:37;;;;;;;14.87;6.63;;;;;;;-145.18;100.00;46783.47;4992872;28;20034;-72
2024/01/08 06:40:03;;;;;;;12.33;5.73;;;;;;;-145.18;100.00;46781.50;4992631;28;20113;-73
2024/01/08 06:42:28;;;;;;;12.33;6.30;;;;;;;-145.18;100.00;46779.56;4992834;28;20343;-68
2024/01/08 06:44:54;;;;;;;13.30;6.67;;;;;;;-145.18;100.00;46783.47;4992368;28;20299;-68
2024/01/08 06:47:19;;;;;;;17.37;7.33;;;;;;;-145.18;100.00;46783.47;4991635;28;20054;-68
2024/01/08 06:49:45;;;;;;;13.23;6.73;;;;;;;-145.18;100.00;46783.47;4992271;28;20545;-68
2024/01/08 06:52:10;;;;;;;11.23;5.83;;;;;;;-145.18;100.00;46789.31;4981711;28;20037;-68
2024/01/08 06:54:35;;;;;;;12.50;7.10;;;;;;;-145.18;100.00;46789.31;4992374;28;20026;-68
2024/01/08 06:57:01;;;;;;;15.00;6.93;;;;;;;-145.18;100.00;46785.41;4979393;28;20113;-68
2024/01/08 06:59:27;;;;;;;15.87;7.73;;;;;;;-145.18;100.00;46787.38;4992506;28;20038;-68
2024/01/08 07:01:53;;;;;;;14.10;5.95;;;;;;;-145.18;100.00;46785.41;4990903;28;20272;-68
2024/01/08 07:04:18;;;;;;;15.33;6.63;;;;;;;-145.18;100.00;46783.47;4990953;28;20037;-69
2024/01/08 07:06:44;;;;;;;11.83;6.23;;;;;;;-145.18;100.00;46793.22;4990435;28;20121;-68
2024/01/08 07:09:10;;;;;;;12.77;5.87;;;;;;;-145.18;100.00;46791.28;4990748;28;20034;-68
2024/01/08 07:11:35;;;;;;;13.07;6.63;;;;;;;-145.18;100.00;46787.38;4991075;28;20034;-68
2024/01/08 07:14:01;;;;;;;15.07;6.67;;;;;;;-145.18;100.00;46793.22;4991787;28;20019;-68
2024/01/08 07:16:26;;;;;;;13.63;6.37;;;;;;;-145.18;100.00;46793.22;4992114;28;20018;-68
2024/01/08 07:18:52;;;;;;;16.77;6.07;;;;;;;-145.18;100.00;46787.38;4963026;28;20027;-68
2024/01/08 07:21:18;;;;;;;16.57;6.83;;;;;;;-145.18;100.00;46789.31;4974912;28;20061;-68
2024/01/08 07:23:48;;;;;;;13.23;6.32;;;;;;;-145.18;100.00;46793.22;4992234;28;20510;-68
2024/01/08 07:26:14;;;;;;;12.43;6.63;;;;;;;-145.18;100.00;46793.22;4992093;28;20032;-68
2024/01/08 07:28:43;;;;;;;12.88;5.95;;;;;;;-145.18;100.00;46793.22;4988819;28;20054;-68
2024/01/08 07:31:09;;;;;;;12.88;6.63;;;;;;;-145.18;100.00;46789.31;4992519;28;20066;-68
2024/01/08 07:33:36;;;;;;;12.80;6.60;;;;;;;-145.18;100.00;46789.31;4992239;28;20037;-69
2024/01/08 07:36:05;;;;;;;13.75;6.28;;;;;;;-145.18;100.00;46791.28;4991858;28;20026;-68
2024/01/08 07:38:31;;;;;;;14.45;6.82;;;;;;;-145.18;100.00;46785.41;4992009;28;20022;-68
2024/01/08 07:40:56;;;;;;;13.50;6.97;;;;;;;-145.18;100.00;46785.41;4992438;28;20049;-68
2024/01/08 07:43:22;;;;;;;11.87;6.07;;;;;;;-145.18;100.00;46785.41;4992969;28;20031;-68
2024/01/08 07:45:47;;;;;;;17.93;6.97;;;;;;;-145.18;100.00;46789.31;4992345;28;20054;-68
2024/01/08 07:48:13;;;;;;;15.20;6.17;;;;;;;-145.18;100.00;46787.38;4991802;28;20037;-68
2024/01/08 07:50:39;;;;;;;11.53;6.27;;;;;;;-145.18;100.00;46787.38;4991980;28;20041;-68
2024/01/08 07:53:04;;;;;;;14.02;6.72;;;;;;;-145.18;100.00;46787.38;4991976;28;20061;-72
2024/01/08 07:55:29;;;;;;;11.43;6.07;;;;;;;-145.18;100.00;46783.47;4991879;28;20042;-73
2024/01/08 07:57:55;;;;;;;12.47;5.93;;;;;;;-145.18;100.00;46779.56;4991893;28;20034;-73
2024/01/08 08:00:22;;;;;;;14.27;6.57;;;;;;;-145.18;100.00;46775.66;4992060;28;20447;-73
2024/01/08 08:02:48;;;;;;;14.10;6.68;;;;;;;-145.18;100.00;46779.56;4992043;28;20042;-73
2024/01/08 08:05:14;;;;;;;11.20;5.93;;;;;;;-145.18;100.00;46775.66;4992186;28;20503;-72
2024/01/08 08:07:39;;;;;;;11.97;5.87;;;;;;;-145.18;100.00;46773.69;4991851;28;20042;-73
2024/01/08 08:10:05;;;;;;;10.83;5.87;;;;;;;-145.18;100.00;46773.69;4991745;28;20058;-73
2024/01/08 08:12:32;;;;;;;13.20;5.60;;;;;;;-145.18;100.00;46773.69;4991730;28;20520;-73
2024/01/08 08:14:58;;;;;;;11.15;5.60;;;;;;;-145.18;100.00;46769.78;4991795;28;20105;-72
2024/01/08 08:17:24;;;;;;;10.68;5.13;;;;;;;-145.18;100.00;46765.88;4991389;28;20030;-73
2024/01/08 08:19:50;;;;;;;11.13;5.50;;;;;;;-145.18;100.00;46763.91;4991717;28;20035;-73
2024/01/08 08:22:15;;;;;;;11.37;5.70;;;;;;;-145.18;100.00;46765.88;4991624;28;20081;-73
2024/01/08 08:24:41;;;;;;;14.57;6.27;;;;;;;-145.18;100.00;46765.88;4992354;28;20026;-73
2024/01/08 08:27:09;;;;;;;13.07;6.43;;;;;;;-145.18;100.00;46760.00;4995679;28;20027;-73
2024/01/08 08:29:41;;;;;;;14.73;6.95;;;;;;;-145.18;100.00;46763.91;4995154;28;20104;-73
2024/01/08 08:32:07;;;;;;;10.05;5.25;;;;;;;-145.18;100.00;46765.88;4995383;28;20035;-73
2024/01/08 08:34:33;;;;;;;35.77;13.27;;;;;;;-145.18;100.00;46760.00;4995294;28;20038;-73
2024/01/08 08:36:58;;;;;;;18.60;8.37;;;;;;;-145.18;100.00;46760.00;4994823;28;20073;-72
2024/01/08 08:39:23;;;;;;;13.07;6.97;;;;;;;-145.18;100.00;46758.06;4977630;28;20361;-73
2024/01/08 08:41:49;;;;;;;11.07;6.43;;;;;;;-145.18;100.00;46756.09;4995009;28;20042;-73
2024/01/08 08:44:15;;;;;;;11.40;5.50;;;;;;;-145.18;100.00;46754.16;4995133;28;20035;-72
2024/01/08 08:46:40;;;;;;;8.77;4.53;;;;;;;-145.18;100.00;46754.16;4995317;28;20026;-73
2024/01/08 08:49:06;;;;;;;8.90;4.53;;;;;;;-145.18;100.00;46750.25;4994909;28;20410;-73
2024/01/08 08:51:35;;;;;;;8.03;4.40;;;;;;;-145.18;100.00;46756.09;4993851;28;20030;-73
2024/01/08 08:54:04;;;;;;;9.25;5.32;;;;;;;-145.18;100.00;46752.19;4993659;28;20267;-73
2024/01/08 08:56:35;;;;;;;9.15;4.97;;;;;;;-145.18;100.00;46752.19;4991817;28;20500;-73
2024/01/08 08:59:01;;;;;;;10.50;4.95;;;;;;;-145.18;100.00;46752.19;4994913;28;20085;-73
2024/01/08 09:01:27;;;;;;;8.05;4.43;;;;;;;-145.18;100.00;46746.34;4995194;28;20053;-72
2024/01/08 09:03:52;;;;;;;7.50;4.07;;;;;;;-145.18;100.00;46746.34;4994805;28;20076;-68
2024/01/08 09:06:20;;;;;;;7.27;4.40;;;;;;;-145.18;100.00;46744.38;4994988;28;20058;-68
2024/01/08 09:08:50;;;;;;;8.23;4.57;;;;;;;-145.18;100.00;46742.44;4993371;28;20038;-68
2024/01/08 09:11:15;;;;;;;7.38;4.63;;;;;;;-145.18;100.00;46744.38;4994425;28;20387;-68
2024/01/08 09:13:42;;;;;;;11.07;4.50;;;;;;;-145.18;100.00;46744.38;4994275;28;20030;-68
2024/01/08 09:16:12;;;;;;;10.52;4.80;;;;;;;-145.18;100.00;46746.34;4976085;28;20549;-68
2024/01/08 09:18:38;;;;;;;9.00;4.57;;;;;;;-145.18;100.00;46744.38;4994052;28;20439;-68
2024/01/08 09:21:07;;;;;;;16.40;5.20;;;;;;;-145.18;100.00;46742.44;4994467;28;20022;-68
2024/01/08 09:23:32;;;;;;;8.40;4.90;;;;;;;-145.18;100.00;46744.38;4994097;28;20034;-68
2024/01/08 09:25:57;;;;;;;9.20;4.63;;;;;;;-145.18;100.00;46742.44;4993930;28;20026;-69
2024/01/08 09:28:23;;;;;;;10.30;4.77;;;;;;;-145.18;100.00;46744.38;4992115;28;20062;-69
2024/01/08 09:30:50;;;;;;;9.70;4.60;;;;;;;-145.18;100.00;46746.34;4994298;28;20391;-68
2024/01/08 09:33:16;;;;;;;11.10;6.05;;;;;;;-145.18;100.00;46742.44;4992828;28;20026;-68
2024/01/08 09:35:41;;;;;;;8.83;4.37;;;;;;;-145.18;100.00;46738.53;4993351;28;20030;-69
2024/01/08 09:38:07;;;;;;;8.73;4.90;;;;;;;-145.18;100.00;46742.44;4993493;28;20471;-69
2024/01/08 09:40:33;;;;;;;8.73;4.97;;;;;;;-145.18;100.00;46742.44;4993803;28;20034;-70
2024/01/08 09:43:04;;;;;;;8.80;4.83;;;;;;;-145.18;100.00;46742.44;4993477;28;20081;-70
2024/01/08 09:45:30;;;;;;;9.32;4.50;;;;;;;-145.18;100.00;46738.53;4994037;28;20041;-71
2024/01/08 09:47:55;;;;;;;7.47;4.30;;;;;;;-145.18;100.00;46736.56;4993643;28;20030;-71
2024/01/08 09:50:22;;;;;;;10.07;5.20;;;;;;;-145.18;100.00;46736.56;4993605;28;20030;-71
2024/01/08 09:52:49;;;;;;;8.05;5.05;;;;;;;-145.18;100.00;46734.63;4993782;28;20085;-71
2024/01/08 09:55:15;;;;;;;10.25;5.15;;;;;;;-145.18;100.00;46734.63;4993481;28;20042;-71
2024/01/08 09:57:41;;;;;;;9.35;4.72;;;;;;;-145.18;100.00;46740.47;4993367;28;20034;-71
2024/01/08 10:00:07;;;;;;;10.93;5.03;;;;;;;-145.18;100.00;46736.56;4993705;28;20042;-71
2024/01/08 10:02:32;;;;;;;9.15;4.68;;;;;;;-145.18;100.00;46736.56;4993230;28;20558;-71
2024/01/08 10:05:00;;;;;;;8.70;5.07;;;;;;;-145.18;100.00;46738.53;4993450;28;20038;-71
2024/01/08 10:07:26;;;;;;;10.63;5.55;;;;;;;-145.18;100.00;46738.53;4993642;28;20109;-71
2024/01/08 10:09:52;;;;;;;10.65;5.65;;;;;;;-145.18;100.00;46740.47;4992167;28;20462;-71
2024/01/08 10:12:17;;;;;;;9.10;5.47;;;;;;;-145.18;100.00;46748.28;4993176;28;20032;-71
2024/01/08 10:14:43;;;;;;;10.37;4.77;;;;;;;-145.18;100.00;46750.25;4993463;28;20117;-71
2024/01/08 10:17:08;;;;;;;11.10;5.03;;;;;;;-145.18;100.00;46752.19;4991752;28;20104;-71
2024/01/08 10:19:34;;;;;;;12.00;5.80;;;;;;;-145.18;100.00;46750.25;4993677;28;20032;-71
2024/01/08 10:22:10;;;;;;;10.90;5.60;;;;;;;-145.18;100.00;46750.25;4992981;28;20490;-71
2024/01/08 10:24:40;;;;;;;10.10;5.43;;;;;;;-145.18;100.00;46752.19;4992874;28;20034;-71
2024/01/08 10:27:09;;;;;;;11.00;5.20;;;;;;;-145.18;100.00;46756.09;4980626;28;20022;-71
2024/01/08 10:29:36;;;;;;;7.32;4.32;;;;;;;-145.18;100.00;46752.19;4992524;28;20046;-71
2024/01/08 10:32:02;;;;;;;11.75;6.18;;;;;;;-145.18;100.00;46758.06;4981218;28;20034;-71
2024/01/08 10:34:29;;;;;;;10.63;5.20;;;;;;;-145.18;100.00;46754.16;4992671;28;20418;-71
2024/01/08 10:36:57;;;;;;;9.57;5.20;;;;;;;-145.18;100.00;46756.09;4992814;28;20108;-71
2024/01/08 10:39:22;;;;;;;8.93;5.35;;;;;;;-145.18;100.00;46758.06;4992586;28;20034;-71
2024/01/08 10:41:48;;;;;;;10.03;5.70;;;;;;;-145.18;100.00;46756.09;4991580;28;20113;-71
2024/01/08 10:44:14;;;;;;;9.83;5.90;;;;;;;-145.18;100.00;46754.16;4991643;28;20042;-71
2024/01/08 10:47:09;;;;;;;15.33;5.90;;;;;;;-145.18;100.00;46756.09;4992896;28;20526;-72
2024/01/08 10:49:38;;;;;;;11.05;5.55;;;;;;;-145.18;100.00;46750.25;4991842;28;20049;-72
2024/01/08 10:52:20;;;;;;;8.52;4.85;;;;;;;-145.18;100.00;46746.34;4992539;28;20030;-72
2024/01/08 10:54:59;;;;;;;8.27;5.15;;;;;;;-145.18;100.00;46742.44;4982871;28;20482;-73
2024/01/08 10:57:36;;;;;;;11.75;5.63;;;;;;;-145.18;100.00;46742.44;4990757;28;20054;-76
2024/01/08 11:00:06;;;;;;;10.07;5.15;;;;;;;-145.18;100.00;46736.56;4993000;28;20030;-75